createdAt,value
2023-01-25T00:00:48.222Z,102803.28
2023-01-25T00:03:17.369Z,102805.84
2023-01-25T00:05:45.140Z,102802.34
2023-01-25T00:08:12.808Z,102798.03
2023-01-25T00:10:40.615Z,102803.25
2023-01-25T00:13:08.301Z,102797.13
2023-01-25T00:15:36.072Z,102797.13
2023-01-25T00:18:03.876Z,102791.94
2023-01-25T00:20:33.006Z,102790.16
2023-01-25T00:23:00.782Z,102796.31
2023-01-25T00:25:28.589Z,102787.63
2023-01-25T00:27:56.353Z,102792.78
2023-01-25T00:30:24.124Z,102783.25
2023-01-25T00:32:58.824Z,102781.50
2023-01-25T00:35:32.384Z,102774.56
2023-01-25T00:38:03.629Z,102771.97
2023-01-25T00:40:31.446Z,102771.97
2023-01-25T00:43:01.087Z,102776.31
2023-01-25T00:45:28.784Z,102768.50
2023-01-25T00:47:57.062Z,102758.19
2023-01-25T00:50:25.703Z,102766.03
2023-01-25T00:52:53.658Z,102764.31
2023-01-25T00:55:22.828Z,102765.88
2023-01-25T00:57:50.573Z,102763.25
2023-01-25T01:00:19.020Z,102750.03
2023-01-25T01:02:47.802Z,102746.66
2023-01-25T01:05:15.840Z,102745.91
2023-01-25T01:07:44.377Z,102752.06
2023-01-25T01:10:13.595Z,102753.91
2023-01-25T01:12:42.700Z,102749.50
2023-01-25T01:15:11.014Z,102747.72
2023-01-25T01:17:39.003Z,102749.50
2023-01-25T01:20:08.163Z,102748.69
2023-01-25T01:22:35.992Z,102745.00
2023-01-25T01:25:03.794Z,102756.38
2023-01-25T01:27:31.771Z,102739.81
2023-01-25T01:30:00.942Z,102727.84
2023-01-25T01:32:29.010Z,102753.69
2023-01-25T01:34:56.926Z,102753.66
2023-01-25T01:37:24.721Z,102748.44
2023-01-25T01:39:53.202Z,102751.06
2023-01-25T01:42:21.065Z,102753.75
2023-01-25T01:44:52.034Z,102750.25
2023-01-25T01:47:26.221Z,102752.06
2023-01-25T01:50:03.896Z,102758.09
2023-01-25T01:52:38.319Z,102754.59
2023-01-25T01:55:10.498Z,102757.28
2023-01-25T01:57:44.466Z,102758.19
2023-01-25T02:00:16.708Z,102758.38
2023-01-25T02:02:47.619Z,102723.69
2023-01-25T02:05:20.343Z,102743.38
2023-01-25T02:07:50.715Z,102747.66
2023-01-25T02:10:21.788Z,102748.50
2023-01-25T02:12:51.877Z,102747.75
2023-01-25T02:15:19.685Z,102742.50
2023-01-25T02:17:50.063Z,102751.19
2023-01-25T02:20:25.264Z,102750.34
2023-01-25T02:23:00.851Z,102727.06
2023-01-25T02:25:30.125Z,102738.16
2023-01-25T02:28:10.417Z,102739.88
2023-01-25T02:30:38.796Z,102730.28
2023-01-25T02:33:06.586Z,102731.13
2023-01-25T02:35:40.447Z,102726.88
2023-01-25T02:38:09.308Z,102730.22
2023-01-25T02:40:46.497Z,102725.09
2023-01-25T02:43:15.052Z,102725.91
2023-01-25T02:45:46.841Z,102724.09
2023-01-25T02:48:14.633Z,102722.53
2023-01-25T02:50:42.469Z,102722.59
2023-01-25T02:53:11.995Z,102715.66
2023-01-25T02:55:41.156Z,102719.94
2023-01-25T02:58:09.604Z,102719.09
2023-01-25T03:00:37.621Z,102717.38
2023-01-25T03:03:05.470Z,102720.75
2023-01-25T03:05:34.584Z,102726.97
2023-01-25T03:08:02.601Z,102724.25
2023-01-25T03:10:30.362Z,102719.06
2023-01-25T03:13:00.418Z,102706.91
2023-01-25T03:15:28.702Z,102716.50
2023-01-25T03:17:56.866Z,102706.84
2023-01-25T03:20:24.873Z,102713.03
2023-01-25T03:22:53.116Z,102712.97
2023-01-25T03:25:21.334Z,102706.91
2023-01-25T03:27:58.178Z,102712.94
2023-01-25T03:30:27.647Z,102720.75
2023-01-25T03:32:55.703Z,102721.63
2023-01-25T03:35:24.320Z,102724.25
2023-01-25T03:37:52.832Z,102719.06
2023-01-25T03:40:20.674Z,102718.97
2023-01-25T03:42:52.185Z,102717.38
2023-01-25T03:45:20.121Z,102715.66
2023-01-25T03:47:49.780Z,102709.59
2023-01-25T03:50:17.723Z,102710.47
2023-01-25T03:53:27.384Z,102710.38
2023-01-25T03:55:58.477Z,102705.19
2023-01-25T03:58:27.328Z,102698.31
2023-01-25T04:00:56.842Z,102699.97
2023-01-25T04:03:26.625Z,102698.31
2023-01-25T04:05:55.336Z,102696.53
2023-01-25T04:08:24.667Z,102694.81
2023-01-25T04:10:53.800Z,102686.13
2023-01-25T04:13:22.404Z,102681.75
2023-01-25T04:15:51.453Z,102667.09
2023-01-25T04:18:41.099Z,102674.88
2023-01-25T04:21:09.164Z,102660.84
2023-01-25T04:23:36.905Z,102662.69
2023-01-25T04:26:07.466Z,102660.09
2023-01-25T04:28:36.535Z,102657.34
2023-01-25T04:31:06.096Z,102634.16
2023-01-25T04:33:40.931Z,102655.72
2023-01-25T04:36:10.185Z,102653.22
2023-01-25T04:38:39.410Z,102647.91
2023-01-25T04:41:07.359Z,102649.59
2023-01-25T04:43:35.403Z,102647.09
2023-01-25T04:46:08.447Z,102643.63
2023-01-25T04:48:36.260Z,102641.06
2023-01-25T04:51:09.418Z,102646.34
2023-01-25T04:53:37.404Z,102642.00
2023-01-25T04:56:08.206Z,102631.03
2023-01-25T04:58:44.948Z,102638.59
2023-01-25T05:01:13.159Z,102650.00
2023-01-25T05:03:40.955Z,102644.94
2023-01-25T05:06:17.713Z,102640.63
2023-01-25T05:08:45.837Z,102640.53
2023-01-25T05:11:14.130Z,102636.97
2023-01-25T05:13:51.960Z,102637.88
2023-01-25T05:16:25.795Z,102635.31
2023-01-25T05:18:55.759Z,102635.25
2023-01-25T05:21:50.220Z,102631.72
2023-01-25T05:24:21.624Z,102626.50
2023-01-25T05:27:01.519Z,102618.53
2023-01-25T05:29:38.717Z,102622.16
2023-01-25T05:32:10.249Z,102603.34
2023-01-25T05:34:39.966Z,102612.59
2023-01-25T05:37:10.655Z,102611.00
2023-01-25T05:39:42.324Z,102618.75
2023-01-25T05:42:13.363Z,102602.44
2023-01-25T05:44:41.395Z,102617.13
2023-01-25T05:47:14.066Z,102619.59
2023-01-25T05:49:42.310Z,102610.00
2023-01-25T05:52:16.042Z,102613.50
2023-01-25T05:54:44.732Z,102610.00
2023-01-25T05:57:15.181Z,102615.22
2023-01-25T05:59:43.194Z,102608.25
2023-01-25T06:02:13.465Z,102612.63
2023-01-25T06:04:42.139Z,102611.84
2023-01-25T06:07:10.968Z,102612.94
2023-01-25T06:09:40.320Z,102610.34
2023-01-25T06:12:10.346Z,102607.59
2023-01-25T06:14:38.146Z,102595.66
2023-01-25T06:17:06.099Z,102609.47
2023-01-25T06:19:56.243Z,102603.34
2023-01-25T06:22:37.772Z,102601.56
2023-01-25T06:25:08.413Z,102601.56
2023-01-25T06:27:36.286Z,102599.66
2023-01-25T06:30:04.434Z,102597.94
2023-01-25T06:32:33.468Z,102596.16
2023-01-25T06:35:01.247Z,102590.94
2023-01-25T06:37:29.042Z,102592.72
2023-01-25T06:39:57.035Z,102569.47
2023-01-25T06:42:26.406Z,102597.81
2023-01-25T06:44:54.105Z,102601.31
2023-01-25T06:47:21.874Z,102599.66
2023-01-25T06:49:49.576Z,102605.69
2023-01-25T06:52:17.330Z,102593.50
2023-01-25T06:54:45.156Z,102600.44
2023-01-25T06:57:13.252Z,102600.38
2023-01-25T06:59:42.626Z,102603.94
2023-01-25T07:02:15.224Z,102604.75
2023-01-25T07:04:43.148Z,102602.25
2023-01-25T07:07:11.020Z,102601.34
2023-01-25T07:09:38.818Z,102592.72
2023-01-25T07:12:07.456Z,102607.44
2023-01-25T07:14:35.410Z,102603.06
2023-01-25T07:17:04.499Z,102603.94
2023-01-25T07:19:32.419Z,102608.25
2023-01-25T07:22:00.185Z,102597.88
2023-01-25T07:24:29.468Z,102610.91
2023-01-25T07:26:57.308Z,102606.47
2023-01-25T07:29:25.241Z,102608.25
2023-01-25T07:31:53.195Z,102606.47
2023-01-25T07:34:22.695Z,102602.09
2023-01-25T07:36:50.453Z,102592.56
2023-01-25T07:39:18.281Z,102603.00
2023-01-25T07:41:46.060Z,102598.72
2023-01-25T07:44:15.196Z,102599.59
2023-01-25T07:46:51.634Z,102608.34
2023-01-25T07:49:19.669Z,102597.97
2023-01-25T07:51:48.804Z,102596.16
2023-01-25T07:54:16.586Z,102608.25
2023-01-25T07:56:44.641Z,102599.53
2023-01-25T07:59:12.449Z,102592.63
2023-01-25T08:01:41.166Z,102584.03
2023-01-25T08:04:09.689Z,102585.53
2023-01-25T08:06:39.800Z,102590.78
2023-01-25T08:09:12.032Z,102579.47
2023-01-25T08:11:40.174Z,102588.09
2023-01-25T08:14:08.416Z,102589.00
2023-01-25T08:16:36.115Z,102590.78
2023-01-25T08:19:04.722Z,102597.63
2023-01-25T08:21:34.019Z,102585.56
2023-01-25T08:24:03.864Z,102598.66
2023-01-25T08:26:33.711Z,102576.34
2023-01-25T08:29:01.483Z,102595.19
2023-01-25T08:31:31.087Z,102596.00
2023-01-25T08:33:59.705Z,102586.47
2023-01-25T08:36:28.612Z,102587.34
2023-01-25T08:38:58.315Z,102578.69
2023-01-25T08:41:27.736Z,102580.34
2023-01-25T08:43:57.919Z,102581.22
2023-01-25T08:46:30.349Z,102576.91
2023-01-25T08:49:01.043Z,102577.72
2023-01-25T08:51:31.209Z,102573.41
2023-01-25T08:54:02.514Z,102574.34
2023-01-25T08:56:30.214Z,102580.41
2023-01-25T08:58:59.318Z,102574.31
2023-01-25T09:01:27.035Z,102577.03
2023-01-25T09:03:55.361Z,102558.91
2023-01-25T09:06:23.167Z,102569.06
2023-01-25T09:08:51.243Z,102561.13
2023-01-25T09:11:21.131Z,102562.00
2023-01-25T09:13:49.420Z,102564.56
2023-01-25T09:16:22.808Z,102566.25
2023-01-25T09:18:51.232Z,102571.50
2023-01-25T09:21:20.036Z,102567.22
2023-01-25T09:23:51.498Z,102560.13
2023-01-25T09:26:32.468Z,102562.97
2023-01-25T09:29:00.702Z,102564.66
2023-01-25T09:31:30.457Z,102554.19
2023-01-25T09:34:14.200Z,102548.19
2023-01-25T09:36:42.095Z,102547.25
2023-01-25T09:39:12.115Z,102544.63
2023-01-25T09:42:21.538Z,102549.94
2023-01-25T09:45:04.183Z,102523.97
2023-01-25T09:47:43.474Z,102540.22
2023-01-25T09:50:27.989Z,102535.00
2023-01-25T09:53:15.710Z,102528.28
2023-01-25T09:55:44.210Z,102503.94
2023-01-25T09:58:15.659Z,102521.97
2023-01-25T10:00:47.949Z,102504.75
2023-01-25T10:03:24.189Z,102534.91
2023-01-25T10:05:54.673Z,102524.44
2023-01-25T10:08:31.441Z,102518.31
2023-01-25T10:11:05.783Z,102512.34
2023-01-25T10:13:33.461Z,102514.06
2023-01-25T10:16:06.519Z,102505.34
2023-01-25T10:18:55.659Z,102506.16
2023-01-25T10:21:29.409Z,102505.34
2023-01-25T10:24:13.540Z,102503.44
2023-01-25T10:26:48.020Z,102493.38
2023-01-25T10:29:20.855Z,102499.94
2023-01-25T10:31:51.360Z,102498.31
2023-01-25T10:34:22.808Z,102498.16
2023-01-25T10:36:55.992Z,102496.44
2023-01-25T10:39:24.105Z,102486.06
2023-01-25T10:41:56.994Z,102488.50
2023-01-25T10:44:26.267Z,102470.47
2023-01-25T10:47:00.641Z,102480.81
2023-01-25T10:49:39.478Z,102476.41
2023-01-25T10:52:15.288Z,102473.03
2023-01-25T10:54:43.542Z,102465.13
2023-01-25T10:57:18.308Z,102456.66
2023-01-25T10:59:49.115Z,102454.78
2023-01-25T11:02:39.067Z,102458.19
2023-01-25T11:05:34.511Z,102461.56
2023-01-25T11:08:23.269Z,102451.25
2023-01-25T11:10:52.043Z,102451.94
2023-01-25T11:13:27.106Z,102452.88
2023-01-25T11:15:57.900Z,102445.97
2023-01-25T11:18:28.526Z,102415.00
2023-01-25T11:21:07.280Z,102445.94
2023-01-25T11:23:35.300Z,102443.34
2023-01-25T11:26:14.722Z,102431.97
2023-01-25T11:28:42.867Z,102442.63
2023-01-25T11:31:16.276Z,102436.22
2023-01-25T11:33:44.100Z,102430.25
2023-01-25T11:36:27.921Z,102416.16
2023-01-25T11:39:25.351Z,102410.13
2023-01-25T11:42:04.362Z,102398.91
2023-01-25T11:45:03.578Z,102398.81
2023-01-25T11:47:46.087Z,102386.63
2023-01-25T11:50:21.224Z,102386.56
2023-01-25T11:53:04.258Z,102379.50
2023-01-25T11:55:38.904Z,102370.75
2023-01-25T11:58:32.160Z,102364.63
2023-01-25T12:01:11.926Z,102357.81
2023-01-25T12:04:07.030Z,102348.31
2023-01-25T12:06:48.244Z,102337.88
2023-01-25T12:09:27.015Z,102339.50
2023-01-25T12:12:08.686Z,102335.91
2023-01-25T12:14:55.956Z,102336.06
2023-01-25T12:17:34.528Z,102325.56
2023-01-25T12:20:23.321Z,102325.63
2023-01-25T12:23:06.918Z,102322.09
2023-01-25T12:25:49.032Z,102311.66
2023-01-25T12:28:23.991Z,102287.41
2023-01-25T12:30:55.723Z,102295.19
2023-01-25T12:33:30.370Z,102289.09
2023-01-25T12:36:05.528Z,102277.06
2023-01-25T12:38:38.711Z,102273.34
2023-01-25T12:41:18.348Z,102266.41
2023-01-25T12:43:50.412Z,102264.69
2023-01-25T12:46:27.063Z,102264.56
2023-01-25T12:49:00.408Z,102248.06
2023-01-25T12:51:37.332Z,102247.28
2023-01-25T12:54:12.861Z,102240.34
2023-01-25T12:56:47.913Z,102234.31
2023-01-25T12:59:22.108Z,102231.69
2023-01-25T13:01:54.752Z,102226.38
2023-01-25T13:04:37.987Z,102189.59
2023-01-25T13:07:16.760Z,102214.97
2023-01-25T13:09:53.103Z,102203.56
2023-01-25T13:12:23.770Z,102201.06
2023-01-25T13:14:51.924Z,102171.06
2023-01-25T13:17:31.234Z,102183.75
2023-01-25T13:20:00.081Z,102179.31
2023-01-25T13:22:58.881Z,102174.09
2023-01-25T13:25:27.520Z,102169.69
2023-01-25T13:28:45.084Z,102177.75
2023-01-25T13:31:53.363Z,102166.16
2023-01-25T13:34:54.661Z,102162.69
2023-01-25T13:37:25.572Z,102158.41
2023-01-25T13:39:54.795Z,102146.16
2023-01-25T13:42:25.353Z,102145.44
2023-01-25T13:44:56.848Z,102149.03
2023-01-25T13:47:28.167Z,102141.44
2023-01-25T13:50:01.470Z,102142.97
2023-01-25T13:52:32.284Z,102140.28
2023-01-25T13:55:00.703Z,102142.28
2023-01-25T13:57:30.824Z,102143.16
2023-01-25T14:00:10.633Z,102147.56
2023-01-25T14:02:40.703Z,102143.06
2023-01-25T14:05:19.491Z,102143.22
2023-01-25T14:07:50.084Z,102136.19
2023-01-25T14:10:23.420Z,102128.28
2023-01-25T14:12:52.997Z,102125.97
2023-01-25T14:15:24.898Z,102132.78
2023-01-25T14:18:12.252Z,102127.47
2023-01-25T14:20:40.049Z,102122.19
2023-01-25T14:23:21.881Z,102113.22
2023-01-25T14:25:49.930Z,102116.06
2023-01-25T14:28:19.101Z,102118.53
2023-01-25T14:30:51.806Z,102115.75
2023-01-25T14:33:22.348Z,102111.47
2023-01-25T14:35:56.489Z,102113.97
2023-01-25T14:38:35.949Z,102109.13
2023-01-25T14:41:13.113Z,102108.78
2023-01-25T14:43:43.384Z,102091.88
2023-01-25T14:46:23.802Z,102105.66
2023-01-25T14:48:52.807Z,102110.38
2023-01-25T14:51:27.624Z,102105.78
2023-01-25T14:54:01.540Z,102107.72
2023-01-25T14:56:37.661Z,102104.84
2023-01-25T14:59:07.284Z,102110.03
2023-01-25T15:01:41.195Z,102110.78
2023-01-25T15:04:13.973Z,102099.63
2023-01-25T15:06:49.723Z,102096.09
2023-01-25T15:09:38.972Z,102095.44
2023-01-25T15:12:25.321Z,102086.56
2023-01-25T15:14:55.280Z,102089.16
2023-01-25T15:17:45.576Z,102085.91
2023-01-25T15:20:37.879Z,102074.50
2023-01-25T15:23:24.686Z,102077.16
2023-01-25T15:25:56.855Z,102080.63
2023-01-25T15:28:27.091Z,102069.38
2023-01-25T15:30:57.562Z,102059.94
2023-01-25T15:33:28.976Z,102057.09
2023-01-25T15:35:57.508Z,102059.72
2023-01-25T15:38:25.602Z,102046.72
2023-01-25T15:40:53.539Z,102044.97
2023-01-25T15:43:21.672Z,102030.50
2023-01-25T15:45:51.744Z,102035.53
2023-01-25T15:48:27.372Z,102032.09
2023-01-25T15:50:57.474Z,102022.66
2023-01-25T15:53:25.957Z,102033.38
2023-01-25T15:55:56.878Z,102030.75
2023-01-25T15:58:28.578Z,102038.38
2023-01-25T16:00:56.420Z,102028.69
2023-01-25T16:03:24.830Z,102015.91
2023-01-25T16:05:58.220Z,102022.97
2023-01-25T16:08:29.105Z,102023.66
2023-01-25T16:10:57.090Z,102019.41
2023-01-25T16:13:24.940Z,102027.91
2023-01-25T16:15:57.869Z,102023.56
2023-01-25T16:18:25.580Z,102018.38
2023-01-25T16:20:53.391Z,102009.06
2023-01-25T16:23:22.459Z,102017.56
2023-01-25T16:25:53.343Z,102013.31
2023-01-25T16:28:21.057Z,102025.31
2023-01-25T16:30:49.807Z,102021.66
2023-01-25T16:33:17.518Z,102017.88
2023-01-25T16:35:45.206Z,102015.41
2023-01-25T16:38:13.281Z,101989.44
2023-01-25T16:40:42.449Z,102015.81
2023-01-25T16:43:10.200Z,102017.69
2023-01-25T16:45:39.783Z,102012.75
2023-01-25T16:48:08.247Z,102011.94
2023-01-25T16:50:35.987Z,102011.28
2023-01-25T16:53:03.767Z,102004.13
2023-01-25T16:55:31.503Z,102012.56
2023-01-25T16:58:00.511Z,102011.91
2023-01-25T17:00:28.188Z,102013.72
2023-01-25T17:02:59.845Z,102007.81
2023-01-25T17:05:31.991Z,102000.16
2023-01-25T17:07:59.762Z,102001.88
2023-01-25T17:10:28.890Z,101999.88
2023-01-25T17:12:56.599Z,101990.91
2023-01-25T17:15:25.762Z,101998.84
2023-01-25T17:17:53.445Z,101993.75
2023-01-25T17:20:21.187Z,101991.19
2023-01-25T17:22:51.087Z,101987.72
2023-01-25T17:25:19.138Z,101991.00
2023-01-25T17:27:47.024Z,101991.66
2023-01-25T17:30:15.510Z,101990.56
2023-01-25T17:32:44.753Z,101986.25
2023-01-25T17:35:12.507Z,102001.78
2023-01-25T17:37:41.116Z,101988.66
2023-01-25T17:40:11.285Z,101992.81
2023-01-25T17:42:39.319Z,101979.09
2023-01-25T17:45:08.620Z,101980.69
2023-01-25T17:47:36.658Z,101974.63
2023-01-25T17:50:06.813Z,101966.59
2023-01-25T17:52:34.671Z,101974.53
2023-01-25T17:55:02.513Z,101974.44
2023-01-25T17:57:31.413Z,101972.97
2023-01-25T18:00:00.711Z,101954.09
2023-01-25T18:02:28.382Z,101965.47
2023-01-25T18:04:57.779Z,101958.38
2023-01-25T18:07:26.825Z,101967.16
2023-01-25T18:09:54.486Z,101973.84
2023-01-25T18:12:22.185Z,101976.41
2023-01-25T18:14:49.858Z,101969.81
2023-01-25T18:17:18.607Z,101973.84
2023-01-25T18:19:46.688Z,101968.63
2023-01-25T18:22:14.666Z,101967.03
2023-01-25T18:24:44.737Z,101973.06
2023-01-25T18:27:19.273Z,101970.44
2023-01-25T18:29:50.715Z,101970.53
2023-01-25T18:32:18.500Z,101968.25
2023-01-25T18:34:46.808Z,101955.47
2023-01-25T18:37:21.778Z,101954.88
2023-01-25T18:39:52.381Z,101954.63
2023-01-25T18:42:21.546Z,101953.72
2023-01-25T18:44:49.328Z,101951.19
2023-01-25T18:47:18.563Z,101952.28
2023-01-25T18:49:46.750Z,101952.06
2023-01-25T18:52:16.035Z,101951.09
2023-01-25T18:54:44.054Z,101939.09
2023-01-25T18:57:13.797Z,101937.66
2023-01-25T18:59:42.217Z,101932.09
2023-01-25T19:02:12.658Z,101931.06
2023-01-25T19:04:40.570Z,101929.69
2023-01-25T19:07:08.605Z,101923.63
2023-01-25T19:09:36.388Z,101926.75
2023-01-25T19:12:04.656Z,101916.63
2023-01-25T19:14:33.752Z,101909.53
2023-01-25T19:17:01.806Z,101906.78
2023-01-25T19:19:33.823Z,101912.97
2023-01-25T19:22:02.298Z,101905.66
2023-01-25T19:24:31.076Z,101897.97
2023-01-25T19:26:59.017Z,101892.44
2023-01-25T19:29:26.846Z,101884.13
2023-01-25T19:31:56.173Z,101877.28
2023-01-25T19:34:24.115Z,101881.66
2023-01-25T19:36:53.809Z,101869.28
2023-01-25T19:39:21.784Z,101863.78
2023-01-25T19:41:52.823Z,101854.19
2023-01-25T19:44:20.720Z,101863.69
2023-01-25T19:46:48.620Z,101858.38
2023-01-25T19:49:18.172Z,101848.72
2023-01-25T19:51:52.774Z,101842.81
2023-01-25T19:54:21.565Z,101828.91
2023-01-25T19:56:50.076Z,101828.91
2023-01-25T19:59:19.945Z,101821.22
2023-01-25T20:01:48.103Z,101824.09
2023-01-25T20:04:20.621Z,101819.00
2023-01-25T20:06:48.925Z,101815.75
2023-01-25T20:09:18.730Z,101814.56
2023-01-25T20:11:47.190Z,101805.78
2023-01-25T20:14:15.394Z,101808.66
2023-01-25T20:16:43.642Z,101810.25
2023-01-25T20:19:12.516Z,101792.28
2023-01-25T20:21:42.027Z,101814.75
2023-01-25T20:24:10.821Z,101791.03
2023-01-25T20:26:42.665Z,101817.78
2023-01-25T20:29:12.221Z,101807.84
2023-01-25T20:31:41.950Z,101811.81
2023-01-25T20:34:12.726Z,101799.91
2023-01-25T20:36:42.462Z,101800.84
2023-01-25T20:39:12.959Z,101808.19
2023-01-25T20:41:40.765Z,101809.16
2023-01-25T20:44:09.989Z,101806.25
2023-01-25T20:46:38.849Z,101799.22
2023-01-25T20:49:07.620Z,101766.66
2023-01-25T20:51:35.473Z,101799.44
2023-01-25T20:54:04.749Z,101801.75
2023-01-25T20:56:32.705Z,101805.13
2023-01-25T20:59:00.428Z,101795.94
2023-01-25T21:01:30.468Z,101800.09
2023-01-25T21:03:59.140Z,101792.50
2023-01-25T21:06:28.721Z,101788.94
2023-01-25T21:08:56.450Z,101792.25
2023-01-25T21:11:25.975Z,101788.72
2023-01-25T21:13:54.900Z,101787.75
2023-01-25T21:16:23.858Z,101771.16
2023-01-25T21:18:54.506Z,101773.44
2023-01-25T21:21:25.661Z,101758.06
2023-01-25T21:23:54.577Z,101763.19
2023-01-25T21:26:26.512Z,101761.34
2023-01-25T21:28:55.552Z,101745.88
2023-01-25T21:31:25.436Z,101747.66
2023-01-25T21:33:53.591Z,101750.97
2023-01-25T21:36:21.933Z,101757.97
2023-01-25T21:38:51.370Z,101752.97
2023-01-25T21:41:20.773Z,101747.78
2023-01-25T21:44:07.753Z,101738.16
2023-01-25T21:46:36.165Z,101746.84
2023-01-25T21:49:23.602Z,101741.56
2023-01-25T21:51:53.374Z,101757.00
2023-01-25T21:54:22.890Z,101759.50
2023-01-25T21:56:52.402Z,101771.66
2023-01-25T21:59:21.963Z,101781.19
2023-01-25T22:01:50.535Z,101767.44
2023-01-25T22:04:19.894Z,101758.56
2023-01-25T22:06:48.604Z,101759.41
2023-01-25T22:09:16.600Z,101765.53
2023-01-25T22:11:45.831Z,101765.72
2023-01-25T22:14:13.629Z,101773.72
2023-01-25T22:16:42.842Z,101767.66
2023-01-25T22:19:10.623Z,101767.44
2023-01-25T22:21:38.545Z,101762.34
2023-01-25T22:24:07.753Z,101762.00
2023-01-25T22:26:47.514Z,101755.81
2023-01-25T22:29:15.962Z,101754.66
2023-01-25T22:31:45.122Z,101760.72
2023-01-25T22:34:12.871Z,101758.13
2023-01-25T22:36:40.554Z,101758.94
2023-01-25T22:39:08.394Z,101751.34
2023-01-25T22:41:38.349Z,101759.03
2023-01-25T22:44:06.192Z,101760.81
2023-01-25T22:46:34.597Z,101764.16
2023-01-25T22:49:04.733Z,101756.38
2023-01-25T22:51:32.817Z,101753.59
2023-01-25T22:54:00.740Z,101751.19
2023-01-25T22:56:31.728Z,101748.59
2023-01-25T22:59:00.198Z,101744.13
2023-01-25T23:01:29.580Z,101738.16
2023-01-25T23:03:57.360Z,101744.13
2023-01-25T23:06:28.258Z,101752.00
2023-01-25T23:08:57.000Z,101739.78
2023-01-25T23:11:25.847Z,101747.59
2023-01-25T23:14:07.920Z,101744.22
2023-01-25T23:16:36.390Z,101752.00
2023-01-25T23:19:05.031Z,101740.72
2023-01-25T23:21:35.727Z,101732.84
2023-01-25T23:24:04.233Z,101733.84
2023-01-25T23:26:37.499Z,101741.53
2023-01-25T23:29:07.482Z,101740.72
2023-01-25T23:31:35.271Z,101726.03
2023-01-25T23:34:05.317Z,101716.53
2023-01-25T23:36:35.704Z,101714.78
2023-01-25T23:39:04.255Z,101715.69
2023-01-25T23:41:32.567Z,101722.50
2023-01-25T23:44:00.844Z,101720.91
2023-01-25T23:46:29.117Z,101712.22
2023-01-25T23:48:56.880Z,101702.75
2023-01-25T23:51:24.614Z,101707.16
2023-01-25T23:53:55.707Z,101711.44
2023-01-25T23:56:23.465Z,101703.88
2023-01-25T23:58:51.573Z,101701.19
